ALPHA13 EFKU-EFHA

Flight info

Callsign ALPHA13
Flight time 0h 14m
Altitude 18000
Route NISPO ERTOP
Aircraft F35/M-SDGIRUY/C

Departure

Time 2026-04-29 15:17
Airport Kuopio Airport (EFKU)

Arrival

Time 2026-04-29 15:32
Airport Halli Airport (EFHA)
Time Latitude Longitude Altitude Speed Heading
2026-04-29 14:19 63.00176 27.79281 315 ft 0 kts 69°
2026-04-29 14:23 63.00176 27.79284 315 ft 0 kts 69°
2026-04-29 14:29 63.00176 27.79285 315 ft 0 kts 69°
2026-04-29 14:29 63.00182 27.79316 315 ft 9 kts 68°
2026-04-29 14:30 63.00234 27.79551 310 ft 16 kts 66°
2026-04-29 14:30 63.00239 27.79592 310 ft 0 kts 94°
2026-04-29 14:30 63.00230 27.79637 311 ft 9 kts 125°
2026-04-29 14:31 63.00160 27.79827 313 ft 22 kts 145°
2026-04-29 14:31 63.00004 27.79974 319 ft 24 kts 157°
2026-04-29 14:31 62.99856 27.80112 320 ft 22 kts 157°
2026-04-29 14:31 62.99703 27.80256 325 ft 26 kts 156°
2026-04-29 14:32 62.99548 27.80402 331 ft 20 kts 158°
2026-04-29 14:32 62.99465 27.80491 329 ft 12 kts 139°
2026-04-29 14:32 62.99442 27.80679 327 ft 13 kts 78°
2026-04-29 14:32 62.99448 27.80710 326 ft 0 kts 61°
2026-04-29 14:46 62.99460 27.80750 324 ft 10 kts 52°
2026-04-29 14:46 62.99562 27.80842 324 ft 21 kts 339°
2026-04-29 14:46 62.99727 27.80692 323 ft 31 kts 338°
2026-04-29 14:46 62.99962 27.80482 314 ft 42 kts 338°
2026-04-29 14:47 63.00225 27.80225 307 ft 40 kts 338°
2026-04-29 14:47 63.00474 27.79982 309 ft 38 kts 337°
2026-04-29 14:47 63.00686 27.79786 318 ft 14 kts 336°
2026-04-29 14:47 63.00702 27.79683 319 ft 11 kts 245°
2026-04-29 14:48 63.00664 27.79483 320 ft 10 kts 248°
2026-04-29 14:48 63.00638 27.79349 319 ft 10 kts 242°
2026-04-29 14:48 63.00586 27.79245 318 ft 11 kts 212°
2026-04-29 14:48 63.00520 27.79145 317 ft 11 kts 221°
2026-04-29 14:49 63.00458 27.79038 317 ft 11 kts 207°
2026-04-29 14:49 63.00405 27.79016 318 ft 6 kts 89°
2026-04-29 14:49 63.00409 27.79039 318 ft 0 kts 68°
2026-04-29 15:14 63.00402 27.79113 317 ft 10 kts 159°
2026-04-29 15:14 63.00336 27.79165 316 ft 12 kts 153°
2026-04-29 15:14 63.00257 27.79243 314 ft 13 kts 160°
2026-04-29 15:14 63.00199 27.79367 314 ft 12 kts 78°
2026-04-29 15:15 63.00236 27.79554 310 ft 14 kts 75°
2026-04-29 15:15 63.00198 27.79733 312 ft 13 kts 126°
2026-04-29 15:15 63.00143 27.79850 314 ft 9 kts 158°
2026-04-29 15:15 63.00061 27.79928 318 ft 14 kts 156°
2026-04-29 15:16 62.99978 27.80009 319 ft 12 kts 146°
2026-04-29 15:16 62.99970 27.80179 316 ft 14 kts 58°
2026-04-29 15:16 63.00055 27.80242 311 ft 15 kts
2026-04-29 15:16 63.00170 27.80271 308 ft 17 kts 355°
2026-04-29 15:17 63.00408 27.80059 307 ft 104 kts 336°
2026-04-29 15:17 63.01554 27.78631 549 ft 257 kts 306°
2026-04-29 15:17 63.01404 27.74795 1616 ft 280 kts 236°
2026-04-29 15:17 62.99871 27.71827 3284 ft 305 kts 218°
2026-04-29 15:18 62.97929 27.68845 4517 ft 372 kts 217°
2026-04-29 15:18 62.95826 27.65666 7484 ft 341 kts 218°
2026-04-29 15:18 62.93971 27.62530 9897 ft 330 kts 221°
2026-04-29 15:18 62.92279 27.59489 11697 ft 305 kts 226°
2026-04-29 15:19 62.90760 27.56501 13475 ft 271 kts 227°
2026-04-29 15:19 62.89463 27.53892 15069 ft 250 kts 229°
2026-04-29 15:19 62.88048 27.51310 16687 ft 301 kts 225°
2026-04-29 15:19 62.86235 27.47978 17689 ft 385 kts 225°
2026-04-29 15:20 62.83913 27.43485 17943 ft 505 kts 227°
2026-04-29 15:20 62.81115 27.37420 18135 ft 621 kts 230°
2026-04-29 15:20 62.78169 27.30457 18173 ft 625 kts 233°
2026-04-29 15:20 62.75201 27.23411 18125 ft 632 kts 230°
2026-04-29 15:21 62.72302 27.16283 18172 ft 626 kts 233°
2026-04-29 15:21 62.69320 27.09350 18135 ft 629 kts 229°
2026-04-29 15:21 62.66340 27.02375 18146 ft 631 kts 232°
2026-04-29 15:21 62.63498 26.95186 18315 ft 625 kts 233°
2026-04-29 15:22 62.60812 26.87737 18152 ft 625 kts 237°
2026-04-29 15:22 62.58250 26.80134 18122 ft 624 kts 238°
2026-04-29 15:22 62.55730 26.72489 18128 ft 623 kts 238°
2026-04-29 15:22 62.53021 26.65124 18142 ft 627 kts 231°
2026-04-29 15:23 62.50051 26.58192 18176 ft 627 kts 232°
2026-04-29 15:23 62.47253 26.50983 18193 ft 626 kts 233°
2026-04-29 15:23 62.44374 26.43906 18193 ft 628 kts 231°
2026-04-29 15:23 62.41512 26.36788 18211 ft 627 kts 233°
2026-04-29 15:24 62.38653 26.29672 18221 ft 628 kts 232°
2026-04-29 15:24 62.35768 26.22615 18217 ft 628 kts 232°
2026-04-29 15:24 62.32946 26.15618 18219 ft 628 kts 232°
2026-04-29 15:24 62.30056 26.08572 18220 ft 628 kts 232°
2026-04-29 15:25 62.27177 26.01519 18221 ft 628 kts 232°
2026-04-29 15:25 62.24292 25.94485 17664 ft 632 kts 231°
2026-04-29 15:25 62.21366 25.87395 16807 ft 634 kts 231°
2026-04-29 15:25 62.18441 25.80299 15995 ft 635 kts 231°
2026-04-29 15:26 62.15509 25.73235 15217 ft 635 kts 231°
2026-04-29 15:26 62.12577 25.66178 14467 ft 634 kts 231°
2026-04-29 15:26 62.09643 25.59142 13713 ft 635 kts 231°
2026-04-29 15:26 62.06703 25.52117 12914 ft 634 kts 231°
2026-04-29 15:27 62.03653 25.45323 12160 ft 636 kts 221°
2026-04-29 15:27 62.00126 25.39536 10031 ft 622 kts 216°
2026-04-29 15:27 61.96825 25.34893 8332 ft 526 kts 214°
2026-04-29 15:27 61.93906 25.31040 7582 ft 462 kts 213°
2026-04-29 15:28 61.91249 25.27664 5545 ft 432 kts 198°
2026-04-29 15:28 61.89587 25.25554 3879 ft 414 kts 203°
2026-04-29 15:28 61.87302 25.19841 2816 ft 349 kts 253°
2026-04-29 15:28 61.86875 25.15154 2885 ft 307 kts 265°
2026-04-29 15:29 61.86635 25.10865 2743 ft 277 kts 267°
2026-04-29 15:29 61.86365 25.03654 2602 ft 219 kts 268°
2026-04-29 15:30 61.86045 24.97652 2080 ft 199 kts 268°
2026-04-29 15:30 61.85979 24.94734 1809 ft 198 kts 271°
2026-04-29 15:30 61.85931 24.91812 1511 ft 200 kts 272°
2026-04-29 15:30 61.85870 24.88992 1228 ft 182 kts 270°
2026-04-29 15:31 61.85812 24.86574 993 ft 159 kts 269°
2026-04-29 15:31 61.85744 24.83950 779 ft 188 kts 269°
2026-04-29 15:31 61.85676 24.81154 528 ft 182 kts 269°
2026-04-29 15:31 61.85623 24.78908 495 ft 116 kts 266°
2026-04-29 15:32 61.85588 24.77686 491 ft 56 kts 267°
2026-04-29 15:32 61.85575 24.77202 493 ft 22 kts 267°
2026-04-29 15:32 61.85578 24.76889 493 ft 21 kts 269°
2026-04-29 15:32 61.85555 24.76849 487 ft 8 kts 88°
2026-04-29 15:33 61.85559 24.77065 490 ft 21 kts 87°
2026-04-29 15:33 61.85571 24.77481 490 ft 32 kts 86°
2026-04-29 15:33 61.85587 24.77962 490 ft 33 kts 85°
2026-04-29 15:33 61.85605 24.78440 491 ft 32 kts 86°
2026-04-29 15:34 61.85617 24.78895 492 ft 30 kts 86°
2026-04-29 15:34 61.85632 24.79320 494 ft 20 kts 89°
2026-04-29 15:34 61.85539 24.79420 492 ft 17 kts 178°
2026-04-29 15:34 61.85441 24.79491 491 ft 11 kts 157°
2026-04-29 15:35 61.85423 24.79491 489 ft 0 kts 193°